Time;durP1;ratioP1;P1;durP2;ratioP2;P2;SDS_P1;SDS_P2;PMS_P1;PMS_P2;Temp;Humidity;BMP_temperature;BMP_pressure;BME280_temperature;BME280_humidity;BME280_pressure;Samples;Min_cycle;Max_cycle;Signal;HPM_P1;HPM_P2
2021/07/27 00:00:16;;;;;;;5.95;3.60;;;19.80;84.80;;;;;;5064465;28;20028;-82
2021/07/27 00:02:42;;;;;;;4.70;3.35;;;19.70;84.60;;;;;;5042688;28;20040;-82
2021/07/27 00:05:07;;;;;;;6.15;4.45;;;19.70;84.90;;;;;;5005952;28;21965;-83
2021/07/27 00:07:37;;;;;;;4.95;4.30;;;19.70;85.10;;;;;;5032760;28;20111;-83
2021/07/27 00:10:04;;;;;;;5.85;3.55;;;19.70;85.00;;;;;;5020515;28;20028;-81
2021/07/27 00:12:30;;;;;;;6.13;3.15;;;19.80;85.90;;;;;;5033606;28;20396;-82
2021/07/27 00:14:55;;;;;;;5.72;3.55;;;19.80;85.80;;;;;;5018183;28;20032;-82
2021/07/27 00:17:21;;;;;;;6.03;3.83;;;19.90;86.70;;;;;;5037408;28;20680;-82
2021/07/27 00:19:47;;;;;;;4.10;3.70;;;19.80;86.80;;;;;;5015606;28;20036;-82
2021/07/27 00:22:12;;;;;;;4.57;3.45;;;19.80;87.30;;;;;;5034800;28;20028;-82
2021/07/27 00:24:38;;;;;;;3.80;3.40;;;19.80;88.00;;;;;;5034504;28;20028;-81
2021/07/27 00:27:03;;;;;;;5.30;3.45;;;19.80;88.50;;;;;;5035221;28;20033;-82
2021/07/27 00:29:29;;;;;;;4.15;3.70;;;19.80;89.10;;;;;;5034575;28;20029;-82
2021/07/27 00:31:54;;;;;;;7.88;4.63;;;19.80;89.60;;;;;;5050758;28;20039;-82
2021/07/27 00:34:20;;;;;;;5.30;4.28;;;19.70;88.80;;;;;;5016717;28;20077;-82
2021/07/27 00:36:45;;;;;;;4.35;3.55;;;19.70;89.50;;;;;;5032825;28;20021;-82
2021/07/27 00:39:11;;;;;;;4.53;3.90;;;19.70;89.20;;;;;;5033906;28;20487;-82
2021/07/27 00:41:37;;;;;;;5.45;3.75;;;19.60;90.00;;;;;;5032828;28;20033;-81
2021/07/27 00:44:02;;;;;;;3.60;3.30;;;19.70;90.50;;;;;;5016138;28;20104;-82
2021/07/27 00:46:28;;;;;;;4.40;4.00;;;19.60;90.20;;;;;;5034371;28;20039;-82
2021/07/27 00:48:53;;;;;;;4.60;3.75;;;19.60;90.00;;;;;;5033179;28;20032;-82
2021/07/27 00:51:19;;;;;;;4.93;3.97;;;19.60;90.50;;;;;;5033927;28;20033;-82
2021/07/27 00:53:44;;;;;;;4.45;4.05;;;19.50;90.30;;;;;;5035020;28;20480;-81
2021/07/27 00:56:10;;;;;;;6.97;3.55;;;19.40;90.40;;;;;;5034759;28;20405;-82
2021/07/27 00:58:36;;;;;;;4.30;3.20;;;19.50;90.70;;;;;;5064033;28;20064;-81
2021/07/27 01:01:01;;;;;;;4.20;3.30;;;19.50;90.80;;;;;;5030807;28;20055;-81
2021/07/27 01:03:27;;;;;;;5.15;3.70;;;19.50;90.70;;;;;;5049385;28;20481;-81
2021/07/27 01:05:53;;;;;;;5.85;4.25;;;19.50;91.30;;;;;;5033405;28;20420;-82
2021/07/27 01:08:18;;;;;;;5.72;4.18;;;19.50;91.40;;;;;;5031454;28;20032;-81
2021/07/27 01:10:45;;;;;;;4.57;3.88;;;19.50;91.70;;;;;;5033894;28;20167;-81
2021/07/27 01:13:11;;;;;;;3.83;3.10;;;19.50;91.50;;;;;;5044861;28;20036;-82
2021/07/27 01:15:36;;;;;;;6.57;4.45;;;19.50;91.80;;;;;;5032574;28;20387;-82
2021/07/27 01:18:06;;;;;;;6.35;3.88;;;19.50;91.40;;;;;;5017161;28;20050;-81
2021/07/27 01:20:50;;;;;;;6.50;3.63;;;19.60;91.80;;;;;;5032781;28;20377;-81
2021/07/27 01:39:41;;;;;;;5.07;4.07;;;19.00;92.40;;;;;;5036954;28;20355;-81
2021/07/27 01:42:14;;;;;;;5.85;3.97;;;19.10;92.60;;;;;;5040279;28;20025;-81
2021/07/27 01:44:46;;;;;;;8.57;5.40;;;19.20;92.90;;;;;;5047458;28;20024;-82
2021/07/27 01:47:15;;;;;;;4.85;4.28;;;19.20;92.40;;;;;;5033534;28;20032;-82
2021/07/27 01:49:41;;;;;;;6.68;4.75;;;19.00;92.60;;;;;;5030739;28;20366;-82
2021/07/27 01:52:10;;;;;;;9.07;5.78;;;19.00;92.80;;;;;;5016223;28;20036;-81
2021/07/27 01:54:44;;;;;;;7.38;6.25;;;18.90;92.70;;;;;;5015373;28;20032;-81
2021/07/27 01:57:10;;;;;;;8.30;6.07;;;19.00;93.30;;;;;;5048925;28;20365;-81
2021/07/27 01:59:37;;;;;;;10.63;8.18;;;18.90;93.00;;;;;;5029770;28;20029;-81
2021/07/27 02:02:03;;;;;;;8.23;6.93;;;18.90;93.10;;;;;;5032186;28;20466;-81
2021/07/27 02:04:28;;;;;;;9.27;6.68;;;18.90;93.40;;;;;;5029081;28;20120;-81
2021/07/27 02:06:54;;;;;;;11.23;7.05;;;19.00;93.40;;;;;;5032624;28;20037;-81
2021/07/27 02:09:19;;;;;;;19.00;14.30;;;19.00;93.50;;;;;;5031231;28;20032;-82
2021/07/27 02:11:47;;;;;;;12.73;9.18;;;18.90;93.40;;;;;;5032190;28;20055;-83
2021/07/27 02:14:15;;;;;;;10.77;6.90;;;18.90;93.40;;;;;;5015191;28;20033;-82
2021/07/27 02:16:40;;;;;;;14.77;8.75;;;18.90;93.50;;;;;;5030257;28;20557;-82
2021/07/27 02:19:06;;;;;;;10.85;7.65;;;18.80;93.30;;;;;;5029232;28;20032;-81
2021/07/27 02:21:31;;;;;;;12.32;8.75;;;18.90;93.40;;;;;;5031257;28;20116;-82
2021/07/27 02:23:58;;;;;;;14.75;9.45;;;18.90;93.40;;;;;;5045883;28;20048;-81
2021/07/27 02:26:23;;;;;;;9.88;6.90;;;18.90;93.30;;;;;;5044282;28;20029;-81
2021/07/27 02:28:49;;;;;;;21.98;14.32;;;19.10;93.50;;;;;;5032503;28;20028;-81
2021/07/27 02:31:21;;;;;;;13.45;9.30;;;19.00;93.20;;;;;;5049544;28;20183;-81
2021/07/27 02:33:46;;;;;;;12.38;8.93;;;18.80;93.50;;;;;;5046939;28;20024;-83
2021/07/27 02:36:12;;;;;;;13.43;10.05;;;18.80;93.70;;;;;;5048563;28;20037;-81
2021/07/27 02:38:37;;;;;;;12.52;9.57;;;18.70;93.50;;;;;;5046945;28;20028;-81
2021/07/27 02:41:03;;;;;;;12.05;8.65;;;18.90;93.90;;;;;;5047461;28;20037;-81
2021/07/27 02:43:29;;;;;;;10.85;9.15;;;18.90;93.50;;;;;;5031591;28;20162;-81
2021/07/27 02:45:54;;;;;;;15.07;9.43;;;18.80;94.00;;;;;;5031653;28;20441;-81
2021/07/27 02:48:20;;;;;;;17.63;10.30;;;18.80;93.90;;;;;;5049073;28;20043;-82
2021/07/27 02:50:47;;;;;;;13.73;9.40;;;18.90;93.70;;;;;;5032045;28;20032;-82
2021/07/27 02:53:14;;;;;;;15.25;9.35;;;18.60;93.70;;;;;;5014711;28;20056;-81
2021/07/27 02:55:39;;;;;;;12.82;9.65;;;18.60;94.10;;;;;;5030925;28;20341;-81
2021/07/27 02:58:11;;;;;;;13.80;10.02;;;18.70;94.10;;;;;;5032485;28;20036;-81
2021/07/27 03:00:36;;;;;;;13.45;9.07;;;18.60;94.30;;;;;;5052442;28;20354;-81
2021/07/27 03:03:02;;;;;;;17.42;10.02;;;18.60;94.30;;;;;;5017312;28;20047;-81
2021/07/27 03:05:27;;;;;;;15.05;10.38;;;18.60;94.50;;;;;;5030160;28;20040;-81
2021/07/27 03:07:53;;;;;;;15.13;10.30;;;18.60;94.60;;;;;;5033420;28;20487;-81
2021/07/27 03:10:21;;;;;;;16.30;10.27;;;18.70;94.50;;;;;;5030878;28;20441;-81
2021/07/27 03:12:51;;;;;;;17.05;10.77;;;18.60;94.70;;;;;;5016499;28;20033;-81
2021/07/27 03:15:26;;;;;;;17.92;11.18;;;18.60;94.70;;;;;;5047096;28;20396;-80
2021/07/27 03:17:58;;;;;;;17.60;11.63;;;18.60;94.90;;;;;;5015937;28;20024;-80
2021/07/27 03:20:24;;;;;;;21.15;12.23;;;18.50;95.00;;;;;;5033582;28;20033;-81
2021/07/27 03:22:53;;;;;;;19.33;10.15;;;18.50;95.10;;;;;;5037443;28;20041;-81
2021/07/27 03:25:19;;;;;;;14.15;10.48;;;18.70;95.00;;;;;;5048135;28;20477;-81
2021/07/27 03:27:45;;;;;;;17.00;10.55;;;18.60;95.20;;;;;;5034542;28;20041;-80
2021/07/27 03:30:14;;;;;;;12.13;9.73;;;18.60;94.90;;;;;;5045569;28;20515;-81
2021/07/27 03:32:40;;;;;;;14.27;9.75;;;18.50;94.90;;;;;;5060402;28;20250;-81
2021/07/27 03:35:06;;;;;;;16.25;10.30;;;18.60;94.90;;;;;;5035279;28;20412;-81
2021/07/27 03:37:34;;;;;;;15.90;9.77;;;18.60;94.60;;;;;;5019897;28;20396;-81
2021/07/27 03:40:01;;;;;;;15.77;9.82;;;18.60;95.10;;;;;;5034995;28;20129;-81
2021/07/27 03:42:26;;;;;;;13.27;9.82;;;18.60;95.00;;;;;;5013964;28;20107;-81
2021/07/27 03:44:56;;;;;;;14.05;10.18;;;18.60;95.40;;;;;;5034015;28;20070;-80
2021/07/27 03:47:21;;;;;;;15.13;10.93;;;18.50;95.40;;;;;;5034072;28;20190;-80
2021/07/27 03:49:47;;;;;;;15.57;10.57;;;18.50;95.40;;;;;;5034512;28;20705;-83
2021/07/27 03:52:12;;;;;;;16.75;11.30;;;18.50;95.50;;;;;;5039805;28;20037;-80
2021/07/27 03:54:38;;;;;;;14.68;9.70;;;18.50;95.50;;;;;;5019375;28;20025;-80
2021/07/27 03:57:04;;;;;;;16.40;10.75;;;18.60;95.50;;;;;;5018833;28;20047;-80
2021/07/27 03:59:30;;;;;;;18.27;13.13;;;18.60;95.20;;;;;;5051230;28;20187;-79
2021/07/27 04:01:56;;;;;;;16.83;11.32;;;18.50;96.10;;;;;;5051302;28;20029;-80
2021/07/27 04:04:21;;;;;;;13.23;9.88;;;18.40;95.70;;;;;;5017673;28;20029;-80
2021/07/27 04:06:47;;;;;;;17.60;13.30;;;18.40;95.70;;;;;;5028949;28;20043;-79
2021/07/27 04:09:14;;;;;;;16.65;12.10;;;18.40;95.90;;;;;;5017260;28;20058;-80
2021/07/27 04:11:39;;;;;;;18.83;12.55;;;18.40;95.80;;;;;;5031037;28;20025;-80
2021/07/27 04:14:05;;;;;;;17.67;12.20;;;18.30;96.00;;;;;;5034820;28;20029;-81
2021/07/27 04:16:31;;;;;;;17.77;13.02;;;18.40;95.80;;;;;;5047645;28;20032;-80
2021/07/27 04:18:57;;;;;;;16.65;11.40;;;18.40;95.80;;;;;;5036282;28;20054;-80
2021/07/27 04:21:24;;;;;;;14.02;11.05;;;18.50;95.90;;;;;;5035684;28;20450;-80
2021/07/27 04:23:50;;;;;;;21.25;12.98;;;18.50;95.60;;;;;;5051007;28;20051;-80
2021/07/27 04:26:16;;;;;;;21.60;15.57;;;18.50;95.90;;;;;;5035150;28;20480;-80
2021/07/27 04:28:45;;;;;;;19.38;12.88;;;18.50;95.60;;;;;;5034106;28;20491;-79
2021/07/27 04:31:10;;;;;;;17.30;13.90;;;18.40;95.70;;;;;;5019292;28;20040;-81
2021/07/27 04:33:37;;;;;;;17.55;12.50;;;18.50;96.00;;;;;;5062959;28;20033;-79
2021/07/27 04:36:03;;;;;;;18.58;13.85;;;18.60;95.90;;;;;;5018388;28;20060;-79
2021/07/27 04:38:29;;;;;;;17.83;12.77;;;18.50;95.50;;;;;;5033099;28;20125;-79
2021/07/27 04:40:54;;;;;;;18.65;12.60;;;18.60;95.70;;;;;;5018511;28;20055;-78
2021/07/27 04:43:20;;;;;;;16.35;12.13;;;18.50;95.70;;;;;;5017265;28;20048;-79
2021/07/27 04:45:45;;;;;;;19.15;13.27;;;18.50;95.70;;;;;;5034121;28;20035;-79
2021/07/27 04:48:11;;;;;;;19.15;14.38;;;18.60;95.70;;;;;;5016989;28;20033;-81
2021/07/27 04:50:37;;;;;;;15.82;11.85;;;18.60;95.70;;;;;;5046758;28;20029;-78
2021/07/27 04:53:05;;;;;;;24.55;14.20;;;18.60;95.70;;;;;;5033823;28;20174;-79
2021/07/27 04:55:31;;;;;;;21.25;15.88;;;18.60;95.60;;;;;;5031580;28;20373;-79
2021/07/27 04:57:56;;;;;;;17.90;12.75;;;18.70;95.80;;;;;;5051080;28;20035;-79
2021/07/27 05:00:24;;;;;;;21.33;15.13;;;18.70;95.80;;;;;;5064554;28;20039;-79
2021/07/27 05:02:51;;;;;;;25.13;16.23;;;18.60;96.10;;;;;;5034124;28;20135;-79
2021/07/27 05:05:17;;;;;;;18.60;13.30;;;18.60;95.80;;;;;;5011409;28;20443;-80
2021/07/27 05:07:44;;;;;;;20.52;13.90;;;18.70;95.90;;;;;;5042606;28;20032;-80
2021/07/27 05:10:10;;;;;;;20.20;13.40;;;18.80;95.80;;;;;;5013082;28;20150;-79
2021/07/27 05:12:36;;;;;;;19.13;14.65;;;18.80;95.90;;;;;;5033010;28;20123;-80
2021/07/27 05:15:03;;;;;;;22.20;16.70;;;18.90;95.60;;;;;;5035322;28;20500;-79
2021/07/27 05:17:28;;;;;;;16.13;12.48;;;19.00;95.70;;;;;;5030727;28;20499;-82
2021/07/27 05:19:54;;;;;;;18.73;13.73;;;19.00;95.50;;;;;;5045724;28;20032;-80
2021/07/27 05:22:26;;;;;;;18.60;14.30;;;19.10;95.40;;;;;;5012822;28;20496;-80
2021/07/27 05:24:52;;;;;;;22.75;15.48;;;19.20;95.20;;;;;;5030582;28;20048;-81
2021/07/27 05:27:24;;;;;;;17.33;13.30;;;19.30;95.50;;;;;;5034692;28;20052;-81
2021/07/27 05:29:50;;;;;;;17.80;11.95;;;19.30;95.00;;;;;;5034130;28;20048;-81
2021/07/27 05:32:16;;;;;;;15.45;11.82;;;19.30;95.30;;;;;;5034403;28;20431;-81
2021/07/27 05:34:41;;;;;;;17.63;14.95;;;19.30;94.90;;;;;;5006027;28;20029;-81
2021/07/27 05:37:07;;;;;;;19.15;12.68;;;19.30;95.20;;;;;;5031127;28;20369;-81
2021/07/27 05:39:32;;;;;;;18.60;13.05;;;19.40;94.80;;;;;;5033204;28;20091;-80
2021/07/27 05:41:58;;;;;;;14.85;12.02;;;19.40;94.90;;;;;;5039204;28;20025;-80
2021/07/27 05:44:25;;;;;;;17.67;13.27;;;19.40;94.80;;;;;;5041890;28;20024;-81
2021/07/27 05:46:54;;;;;;;16.73;13.23;;;19.40;94.80;;;;;;5033881;28;20024;-81
2021/07/27 05:49:21;;;;;;;17.92;13.68;;;19.50;94.60;;;;;;5031993;28;20385;-81
2021/07/27 05:51:50;;;;;;;14.57;11.43;;;19.50;94.80;;;;;;5048466;28;20029;-81
2021/07/27 05:54:18;;;;;;;14.15;11.30;;;19.40;94.80;;;;;;5017095;28;20036;-81
2021/07/27 05:56:45;;;;;;;17.58;12.68;;;19.40;94.80;;;;;;5032953;28;20027;-80
2021/07/27 05:59:10;;;;;;;17.25;12.38;;;19.60;94.80;;;;;;5035287;28;20259;-81
2021/07/27 06:01:36;;;;;;;15.40;11.75;;;19.60;94.90;;;;;;5063551;28;20033;-80
2021/07/27 06:04:01;;;;;;;18.40;12.73;;;19.60;94.60;;;;;;5034572;28;20033;-82
2021/07/27 06:06:30;;;;;;;16.45;11.55;;;19.70;94.80;;;;;;5030832;28;20047;-81
2021/07/27 06:09:00;;;;;;;14.65;10.25;;;19.90;94.50;;;;;;5036609;28;20032;-81
2021/07/27 06:11:26;;;;;;;15.75;11.88;;;20.10;94.00;;;;;;5034795;28;20040;-81
2021/07/27 06:13:51;;;;;;;16.08;11.63;;;20.20;93.90;;;;;;5013029;28;20388;-83
2021/07/27 06:16:17;;;;;;;23.25;13.20;;;20.30;94.40;;;;;;5032022;28;20045;-81
2021/07/27 06:18:42;;;;;;;16.90;10.57;;;20.40;94.00;;;;;;5033199;28;20064;-81
2021/07/27 06:21:10;;;;;;;18.45;12.90;;;20.40;93.70;;;;;;5032862;28;20063;-82
2021/07/27 06:23:36;;;;;;;16.27;10.75;;;20.50;93.70;;;;;;5037920;28;20029;-81
2021/07/27 06:26:05;;;;;;;15.20;12.18;;;20.90;93.50;;;;;;5033109;28;20464;-82
2021/07/27 06:28:30;;;;;;;12.75;10.10;;;21.00;94.00;;;;;;5048400;28;20044;-82
2021/07/27 06:30:56;;;;;;;14.30;10.30;;;21.20;92.80;;;;;;5033901;28;20107;-81
2021/07/27 06:33:22;;;;;;;16.73;12.98;;;21.00;93.10;;;;;;5015817;28;20093;-81
2021/07/27 06:35:56;;;;;;;15.70;11.15;;;21.10;93.20;;;;;;5033588;28;20032;-82
2021/07/27 06:38:21;;;;;;;19.98;12.40;;;21.00;92.80;;;;;;5017211;28;20028;-81
2021/07/27 06:40:47;;;;;;;16.63;11.90;;;21.20;93.00;;;;;;5033746;28;20086;-81
2021/07/27 06:43:12;;;;;;;20.77;12.00;;;21.30;92.80;;;;;;5016545;28;20422;-81
2021/07/27 06:45:38;;;;;;;15.75;10.07;;;21.50;93.00;;;;;;5030429;28;20032;-81
2021/07/27 06:48:04;;;;;;;17.73;11.27;;;21.90;92.30;;;;;;5048900;28;20037;-80
2021/07/27 06:50:29;;;;;;;21.92;10.88;;;21.90;92.60;;;;;;5030464;28;20037;-81
2021/07/27 06:52:55;;;;;;;16.02;11.88;;;21.70;91.90;;;;;;5016313;28;20021;-81
2021/07/27 06:55:21;;;;;;;14.23;11.80;;;21.40;92.10;;;;;;5016041;28;20086;-80
2021/07/27 06:57:46;;;;;;;20.60;14.32;;;21.60;92.40;;;;;;5031166;28;20040;-81
2021/07/27 07:00:13;;;;;;;13.48;11.27;;;21.50;92.00;;;;;;5033039;28;20488;-81
2021/07/27 07:02:38;;;;;;;19.98;13.27;;;21.70;91.90;;;;;;5031593;28;20046;-81
2021/07/27 07:05:04;;;;;;;17.63;12.30;;;21.90;91.80;;;;;;5045739;28;20040;-81
2021/07/27 07:07:31;;;;;;;17.92;12.20;;;21.90;92.00;;;;;;5031674;28;20047;-81
2021/07/27 07:09:56;;;;;;;16.90;12.27;;;22.30;91.40;;;;;;5032932;28;20040;-81
2021/07/27 07:12:23;;;;;;;13.52;10.50;;;22.70;91.40;;;;;;5037248;28;20407;-81
2021/07/27 07:14:54;;;;;;;17.55;11.25;;;22.80;90.90;;;;;;5027413;28;20400;-81
2021/07/27 07:17:19;;;;;;;16.60;11.63;;;23.10;92.10;;;;;;5014546;28;20036;-81
2021/07/27 07:19:45;;;;;;;18.38;11.27;;;23.40;90.60;;;;;;5032927;28;20025;-81
2021/07/27 07:22:11;;;;;;;17.25;11.07;;;23.30;90.70;;;;;;5016495;28;20033;-81
2021/07/27 07:24:36;;;;;;;12.88;10.13;;;23.30;89.90;;;;;;5024214;28;20496;-81
2021/07/27 07:27:02;;;;;;;16.27;11.57;;;23.40;89.80;;;;;;5033160;28;20047;-82
2021/07/27 07:29:27;;;;;;;13.23;9.93;;;23.60;89.80;;;;;;5030613;28;20029;-82
2021/07/27 07:32:03;;;;;;;13.48;8.98;;;23.90;90.30;;;;;;5032925;28;20033;-81
2021/07/27 07:34:30;;;;;;;16.42;11.65;;;23.90;88.40;;;;;;5045450;28;20134;-82
2021/07/27 07:36:56;;;;;;;11.57;8.45;;;23.60;88.20;;;;;;5033470;28;20032;-82
2021/07/27 07:39:21;;;;;;;12.65;9.02;;;23.40;87.50;;;;;;5016063;28;20025;-82
2021/07/27 07:41:47;;;;;;;12.35;9.27;;;23.30;87.30;;;;;;5033059;28;20040;-82
2021/07/27 07:44:12;;;;;;;9.32;7.93;;;23.60;88.20;;;;;;5016104;28;20387;-82
2021/07/27 07:46:38;;;;;;;13.55;9.45;;;23.70;86.40;;;;;;5027702;28;20039;-83
2021/07/27 07:49:06;;;;;;;11.60;9.07;;;23.80;86.20;;;;;;5047110;28;20033;-82
2021/07/27 07:51:32;;;;;;;13.40;8.70;;;23.90;86.30;;;;;;5030799;28;20024;-82
2021/07/27 07:54:00;;;;;;;12.60;8.23;;;23.90;85.10;;;;;;5029826;28;20490;-82
2021/07/27 07:56:25;;;;;;;12.65;8.75;;;24.20;86.10;;;;;;5029960;28;20032;-82
2021/07/27 07:58:51;;;;;;;11.52;8.75;;;24.70;87.00;;;;;;5033200;28;20040;-82
2021/07/27 08:01:17;;;;;;;9.30;8.15;;;24.90;84.60;;;;;;5030571;28;20032;-82
2021/07/27 08:03:43;;;;;;;8.85;7.18;;;25.40;88.10;;;;;;5049706;28;20032;-84
2021/07/27 08:06:09;;;;;;;14.27;7.45;;;25.00;82.40;;;;;;5035971;28;20101;-84
2021/07/27 08:08:38;;;;;;;8.38;7.32;;;24.80;82.20;;;;;;5026598;28;20524;-84
2021/07/27 08:11:04;;;;;;;9.25;7.60;;;24.90;81.70;;;;;;5036016;28;20037;-85
2021/07/27 08:13:30;;;;;;;14.10;8.55;;;25.40;81.90;;;;;;5052435;28;20047;-85
2021/07/27 08:15:55;;;;;;;10.27;7.93;;;25.40;80.60;;;;;;5036013;28;20036;-85
2021/07/27 08:18:21;;;;;;;11.95;6.75;;;25.60;83.20;;;;;;5030742;28;20037;-85
2021/07/27 08:20:47;;;;;;;8.07;7.25;;;25.40;80.80;;;;;;5036498;28;20411;-85
2021/07/27 08:23:12;;;;;;;7.65;6.82;;;25.30;83.40;;;;;;5035933;28;20046;-86
2021/07/27 08:25:38;;;;;;;8.73;7.57;;;25.80;84.00;;;;;;5046128;28;20484;-86
2021/07/27 08:28:03;;;;;;;9.15;7.00;;;25.70;80.70;;;;;;5036935;28;20480;-85
2021/07/27 08:30:29;;;;;;;9.30;7.35;;;26.40;82.60;;;;;;5035747;28;20404;-87
2021/07/27 08:32:54;;;;;;;7.10;5.65;;;26.50;82.70;;;;;;5035910;28;20547;-86
2021/07/27 08:35:21;;;;;;;8.43;7.25;;;26.50;78.80;;;;;;5049081;28;20032;-87
2021/07/27 08:37:47;;;;;;;8.32;6.70;;;26.50;82.30;;;;;;5028427;28;20525;-85
2021/07/27 08:40:16;;;;;;;7.57;5.90;;;26.30;79.00;;;;;;5018377;28;20473;-86
2021/07/27 08:42:42;;;;;;;9.25;6.25;;;26.30;80.60;;;;;;5034582;28;20041;-86
2021/07/27 08:45:08;;;;;;;8.32;6.57;;;26.40;77.60;;;;;;5035114;28;20128;-87
2021/07/27 08:47:34;;;;;;;5.72;4.15;;;26.60;79.90;;;;;;5048349;28;20044;-86
2021/07/27 08:50:00;;;;;;;7.65;6.38;;;26.40;77.30;;;;;;5034034;28;20032;-86
2021/07/27 08:52:26;;;;;;;7.88;5.65;;;27.10;76.20;;;;;;5045684;28;20039;-87
2021/07/27 08:54:53;;;;;;;7.80;6.00;;;27.60;75.80;;;;;;5034041;28;20112;-87
2021/07/27 08:57:18;;;;;;;7.15;5.82;;;26.80;75.90;;;;;;5018112;28;20037;-86
2021/07/27 08:59:45;;;;;;;10.40;7.97;;;27.30;79.10;;;;;;5033809;28;20400;-86
2021/07/27 09:02:11;;;;;;;6.47;5.80;;;27.90;77.20;;;;;;5029660;28;20037;-86
2021/07/27 09:04:36;;;;;;;8.10;6.07;;;28.30;77.10;;;;;;5062723;28;20087;-86
2021/07/27 09:07:04;;;;;;;10.18;7.68;;;28.50;74.30;;;;;;5036591;28;20537;-86
2021/07/27 09:09:32;;;;;;;7.78;5.55;;;28.60;75.20;;;;;;5017441;28;20400;-86
2021/07/27 09:11:59;;;;;;;7.85;7.05;;;28.70;76.80;;;;;;5034793;28;20025;-86
2021/07/27 09:14:24;;;;;;;6.95;5.85;;;28.60;75.40;;;;;;5030322;28;20032;-86
2021/07/27 09:16:53;;;;;;;7.93;6.70;;;29.10;74.60;;;;;;5048204;28;20036;-86
2021/07/27 09:19:19;;;;;;;8.60;6.38;;;29.20;74.50;;;;;;5032326;28;20564;-87
2021/07/27 09:21:46;;;;;;;9.25;7.10;;;28.90;70.00;;;;;;5034527;28;20107;-85
2021/07/27 09:24:20;;;;;;;8.38;6.45;;;28.50;75.20;;;;;;5015964;28;20039;-86
2021/07/27 09:27:02;;;;;;;7.78;6.07;;;28.70;70.00;;;;;;5049075;28;20484;-86
2021/07/27 09:29:28;;;;;;;7.70;6.40;;;28.90;73.00;;;;;;5032652;28;20373;-85
2021/07/27 09:31:58;;;;;;;6.82;5.68;;;29.30;68.80;;;;;;5048633;28;20040;-85
2021/07/27 09:34:27;;;;;;;7.03;6.15;;;29.70;72.90;;;;;;5033693;28;20455;-85
2021/07/27 09:37:01;;;;;;;7.88;6.45;;;30.00;70.90;;;;;;5026791;28;20032;-86
2021/07/27 09:39:26;;;;;;;10.82;6.22;;;29.40;66.60;;;;;;5031793;28;20101;-85
2021/07/27 09:42:05;;;;;;;8.27;6.85;;;28.90;67.40;;;;;;5033680;28;20480;-85
2021/07/27 09:44:31;;;;;;;8.52;6.80;;;29.20;68.50;;;;;;5030433;28;20033;-83
2021/07/27 09:46:58;;;;;;;7.63;6.78;;;29.60;68.40;;;;;;5033920;28;20029;-83
2021/07/27 09:49:24;;;;;;;8.88;6.15;;;29.60;66.60;;;;;;5032305;28;20036;-82
2021/07/27 09:51:50;;;;;;;9.15;6.70;;;29.50;69.00;;;;;;5043673;28;20237;-82
2021/07/27 09:54:17;;;;;;;9.15;6.40;;;29.50;66.60;;;;;;5027020;28;20414;-82
2021/07/27 09:56:44;;;;;;;9.75;6.25;;;29.40;66.40;;;;;;5042921;28;20097;-82
2021/07/27 09:59:09;;;;;;;7.28;6.53;;;29.80;67.70;;;;;;5027480;28;20037;-82
2021/07/27 10:01:35;;;;;;;10.70;6.97;;;29.60;66.20;;;;;;5047244;28;20139;-83
2021/07/27 10:04:01;;;;;;;10.00;6.22;;;29.60;67.00;;;;;;5031957;28;20427;-82
2021/07/27 10:06:29;;;;;;;11.32;7.03;;;30.10;68.50;;;;;;5015779;28;20040;-83
2021/07/27 10:08:56;;;;;;;12.23;6.53;;;29.90;64.60;;;;;;5045704;28;21252;-83
2021/07/27 10:11:41;;;;;;;8.30;6.30;;;30.20;64.70;;;;;;5028674;28;20067;-82
2021/07/27 10:14:11;;;;;;;6.60;5.88;;;29.60;65.30;;;;;;5048952;28;20566;-83
2021/07/27 10:16:36;;;;;;;8.45;6.38;;;30.00;66.90;;;;;;5060945;28;20433;-83
2021/07/27 10:19:35;;;;;;;6.13;5.53;;;30.60;63.40;;;;;;5051175;28;20138;-84
2021/07/27 10:22:05;;;;;;;7.88;6.07;;;30.90;66.40;;;;;;5045684;28;20036;-84
2021/07/27 10:24:35;;;;;;;7.57;6.45;;;31.30;62.30;;;;;;5045626;28;20369;-83
2021/07/27 10:27:18;;;;;;;8.40;6.13;;;31.70;64.30;;;;;;5047618;28;20025;-82
2021/07/27 10:29:43;;;;;;;6.78;6.15;;;31.70;61.90;;;;;;5031625;28;20078;-83
2021/07/27 10:32:19;;;;;;;9.45;7.18;;;31.10;61.60;;;;;;5027572;28;20044;-83
2021/07/27 10:34:45;;;;;;;7.45;6.15;;;31.70;62.80;;;;;;5036183;28;20040;-82
2021/07/27 10:37:15;;;;;;;11.93;5.93;;;31.90;62.30;;;;;;5049475;28;20043;-82
2021/07/27 10:39:59;;;;;;;8.85;6.20;;;32.10;60.20;;;;;;5041020;28;20061;-80
2021/07/27 10:42:26;;;;;;;7.85;7.05;;;30.90;61.50;;;;;;5030460;28;20400;-79
2021/07/27 10:44:52;;;;;;;10.55;7.07;;;31.20;62.50;;;;;;5030534;28;20036;-79
2021/07/27 10:47:24;;;;;;;7.93;6.60;;;31.50;61.40;;;;;;5034869;28;20040;-79
2021/07/27 10:50:04;;;;;;;7.15;6.03;;;31.90;61.80;;;;;;5041531;28;20029;-79
2021/07/27 10:52:30;;;;;;;9.93;7.85;;;31.80;59.70;;;;;;5029259;28;20127;-79
2021/07/27 10:54:57;;;;;;;7.57;6.78;;;31.70;62.00;;;;;;5047944;28;20488;-79
2021/07/27 10:57:25;;;;;;;8.63;5.70;;;32.20;62.10;;;;;;5029921;28;20035;-78
2021/07/27 10:59:50;;;;;;;7.88;5.93;;;32.60;60.00;;;;;;5032570;28;20519;-78
2021/07/27 11:02:16;;;;;;;9.70;6.97;;;32.60;60.60;;;;;;5014516;28;20049;-78
2021/07/27 11:04:42;;;;;;;7.75;6.43;;;32.50;61.10;;;;;;5054848;28;20111;-78
2021/07/27 11:07:12;;;;;;;12.63;6.40;;;32.20;59.70;;;;;;5042120;28;20032;-78
2021/07/27 11:09:54;;;;;;;6.82;6.00;;;32.80;61.20;;;;;;5058252;28;20038;-78
2021/07/27 11:12:30;;;;;;;8.50;7.60;;;33.10;59.90;;;;;;5011802;28;20036;-78
2021/07/27 11:15:05;;;;;;;9.80;6.95;;;32.40;58.70;;;;;;5018874;28;20029;-78
2021/07/27 11:17:31;;;;;;;8.65;6.97;;;32.40;61.10;;;;;;5060583;28;20029;-78
2021/07/27 11:19:58;;;;;;;10.55;8.70;;;32.80;59.10;;;;;;5031587;28;20150;-78
2021/07/27 11:22:23;;;;;;;12.25;10.13;;;32.60;60.30;;;;;;5027664;28;20035;-79
2021/07/27 11:24:49;;;;;;;9.88;8.05;;;32.60;60.30;;;;;;5041269;28;20400;-79
2021/07/27 11:27:15;;;;;;;10.27;8.65;;;32.10;63.50;;;;;;4345391;28;10000223;-79
2021/07/27 11:29:41;;;;;;;14.02;8.63;;;31.40;65.60;;;;;;5027481;28;20033;-80
2021/07/27 11:32:15;;;;;;;17.40;11.10;;;29.40;71.80;;;;;;5026107;28;20048;-81
2021/07/27 11:34:41;;;;;;;13.13;10.20;;;27.40;76.50;;;;;;5058117;28;20044;-80
2021/07/27 11:37:06;;;;;;;10.20;8.40;;;27.30;73.30;;;;;;5010835;28;20044;-80
2021/07/27 11:39:41;;;;;;;11.02;8.27;;;27.10;73.50;;;;;;5029241;28;20087;-79
2021/07/27 11:42:06;;;;;;;8.13;7.32;;;26.70;76.60;;;;;;5059230;28;20040;-79
2021/07/27 11:44:32;;;;;;;10.93;8.00;;;26.40;76.70;;;;;;5045252;28;20025;-79
2021/07/27 11:46:58;;;;;;;8.45;7.50;;;26.20;77.90;;;;;;5033930;28;20032;-79
2021/07/27 11:49:23;;;;;;;12.63;8.02;;;26.00;79.00;;;;;;5031082;28;20036;-78
2021/07/27 11:51:59;;;;;;;8.80;6.95;;;25.90;79.60;;;;;;5050489;28;20036;-79
2021/07/27 11:54:27;;;;;;;9.80;8.65;;;25.90;78.90;;;;;;5018707;28;20090;-78
2021/07/27 11:56:53;;;;;;;11.93;8.32;;;26.10;83.50;;;;;;5033775;28;20511;-81
2021/07/27 11:59:28;;;;;;;9.82;7.90;;;26.40;85.40;;;;;;5061109;28;20037;-79
2021/07/27 12:01:54;;;;;;;9.13;8.18;;;26.80;85.90;;;;;;5063696;28;20098;-79
2021/07/27 12:04:19;;;;;;;10.65;8.55;;;27.10;87.30;;;;;;5015200;28;20064;-80
2021/07/27 12:06:49;;;;;;;8.63;7.72;;;27.50;86.20;;;;;;5032781;28;20043;-79
2021/07/27 12:09:14;;;;;;;19.48;8.90;;;27.90;86.90;;;;;;5015765;28;20089;-80
2021/07/27 12:11:41;;;;;;;11.00;8.85;;;28.30;86.30;;;;;;5062234;28;20454;-80
2021/07/27 12:14:07;;;;;;;9.27;8.38;;;28.70;86.60;;;;;;5016235;28;20032;-79
2021/07/27 12:16:33;;;;;;;9.15;7.50;;;29.00;86.30;;;;;;5013959;28;20099;-80
2021/07/27 12:18:58;;;;;;;12.43;8.63;;;29.20;85.50;;;;;;5016747;28;20094;-79
2021/07/27 12:21:24;;;;;;;11.35;8.98;;;29.50;85.70;;;;;;5028920;28;20035;-79
2021/07/27 12:23:53;;;;;;;12.48;9.70;;;29.70;85.50;;;;;;5013427;28;20515;-78
2021/07/27 12:26:18;;;;;;;12.48;9.35;;;29.90;86.00;;;;;;5029561;28;20124;-79
2021/07/27 12:28:44;;;;;;;15.23;10.98;;;30.10;84.60;;;;;;5033505;28;20047;-80
2021/07/27 12:31:09;;;;;;;13.98;11.85;;;30.10;83.50;;;;;;5017291;28;20507;-79
2021/07/27 12:33:35;;;;;;;11.35;9.13;;;30.20;82.30;;;;;;5045341;28;20036;-80
2021/07/27 12:36:04;;;;;;;11.65;9.90;;;30.30;83.90;;;;;;5033141;28;24790;-80
2021/07/27 12:38:29;;;;;;;12.40;8.90;;;30.60;84.60;;;;;;5033143;28;20040;-79
2021/07/27 12:40:55;;;;;;;11.02;9.10;;;30.80;81.80;;;;;;5032586;28;20029;-80
2021/07/27 12:43:22;;;;;;;13.15;9.60;;;31.10;81.90;;;;;;5014989;28;20039;-80
2021/07/27 12:45:48;;;;;;;8.80;7.63;;;31.30;81.20;;;;;;5033183;28;20020;-78
2021/07/27 12:48:13;;;;;;;11.13;8.18;;;31.30;80.80;;;;;;5015491;28;20090;-79
2021/07/27 12:50:39;;;;;;;11.43;7.57;;;31.40;79.70;;;;;;5049196;28;20496;-79
2021/07/27 12:53:04;;;;;;;8.43;7.10;;;31.70;80.50;;;;;;5031876;28;20035;-78